createdAt,value
2022-11-28T00:00:19.663Z,-5.17
2022-11-28T00:02:22.007Z,-5.25
2022-11-28T00:04:25.473Z,-5.18
2022-11-28T00:06:28.334Z,-5.22
2022-11-28T00:08:32.228Z,-5.16
2022-11-28T00:10:38.826Z,-5.08
2022-11-28T00:12:40.991Z,-5.04
2022-11-28T00:14:43.268Z,-5.04
2022-11-28T00:16:46.895Z,-5.04
2022-11-28T00:18:53.267Z,-4.99
2022-11-28T00:21:07.463Z,-4.97
2022-11-28T00:23:09.765Z,-4.95
2022-11-28T00:25:11.917Z,-4.93
2022-11-28T00:27:17.081Z,-4.93
2022-11-28T00:29:19.296Z,-5.02
2022-11-28T00:31:24.642Z,-5.04
2022-11-28T00:33:30.656Z,-5.04
2022-11-28T00:35:33.994Z,-5.12
2022-11-28T00:37:36.341Z,-5.10
2022-11-28T00:39:44.757Z,-5.08
2022-11-28T00:41:52.112Z,-5.15
2022-11-28T00:43:58.320Z,-5.14
2022-11-28T00:46:00.540Z,-5.19
2022-11-28T00:48:02.704Z,-5.22
2022-11-28T00:50:05.558Z,-5.24
2022-11-28T00:52:11.036Z,-5.23
2022-11-28T00:54:13.241Z,-5.28
2022-11-28T00:56:18.376Z,-5.26
2022-11-28T00:58:20.480Z,-5.26
2022-11-28T01:00:22.742Z,-5.20
2022-11-28T01:02:26.820Z,-5.22
2022-11-28T01:04:29.096Z,-5.33
2022-11-28T01:06:40.307Z,-5.37
2022-11-28T01:08:42.519Z,-5.39
2022-11-28T01:10:45.884Z,-5.40
2022-11-28T01:12:48.017Z,-5.35
2022-11-28T01:14:50.757Z,-5.36
2022-11-28T01:16:53.184Z,-5.47
2022-11-28T01:18:56.130Z,-5.51
2022-11-28T01:20:58.135Z,-5.52
2022-11-28T01:23:00.300Z,-5.56
2022-11-28T01:25:02.398Z,-5.58
2022-11-28T01:27:04.557Z,-5.57
2022-11-28T01:29:07.610Z,-5.63
2022-11-28T01:31:14.076Z,-5.64
2022-11-28T01:33:16.443Z,-5.58
2022-11-28T01:35:18.642Z,-5.55
2022-11-28T01:37:20.755Z,-5.53
2022-11-28T01:39:22.891Z,-5.48
2022-11-28T01:41:28.237Z,-5.50
2022-11-28T01:43:30.504Z,-5.47
2022-11-28T01:45:33.711Z,-5.47
2022-11-28T01:47:43.924Z,-5.48
2022-11-28T01:49:47.705Z,-5.50
2022-11-28T01:51:55.592Z,-5.49
2022-11-28T01:54:00.242Z,-5.59
2022-11-28T01:56:23.395Z,-5.52
2022-11-28T01:58:26.191Z,-5.48
2022-11-28T02:00:28.640Z,-5.50
2022-11-28T02:02:40.516Z,-5.44
2022-11-28T02:04:42.908Z,-5.56
2022-11-28T02:06:44.910Z,-5.52
2022-11-28T02:08:54.191Z,-5.58
2022-11-28T02:11:14.334Z,-5.63
2022-11-28T02:13:53.403Z,-5.54
2022-11-28T02:16:27.581Z,-5.56
2022-11-28T02:18:50.148Z,-5.54
2022-11-28T02:21:06.315Z,-5.53
2022-11-28T02:23:41.447Z,-5.58
2022-11-28T02:26:07.530Z,-5.52
2022-11-28T02:28:10.614Z,-5.60
2022-11-28T02:30:40.467Z,-5.51
2022-11-28T02:32:54.110Z,-5.68
2022-11-28T02:35:17.879Z,-5.73
2022-11-28T02:37:27.343Z,-5.69
2022-11-28T02:39:38.087Z,-5.77
2022-11-28T02:41:52.856Z,-5.73
2022-11-28T02:44:12.532Z,-5.76
2022-11-28T02:46:23.604Z,-5.88
2022-11-28T02:48:55.355Z,-5.80
2022-11-28T02:51:06.527Z,-5.81
2022-11-28T02:53:17.060Z,-5.81
2022-11-28T02:55:19.349Z,-5.85
2022-11-28T02:57:21.881Z,-5.80
2022-11-28T02:59:44.652Z,-5.77
2022-11-28T03:01:46.660Z,-5.74
2022-11-28T03:04:09.799Z,-5.73
2022-11-28T03:06:59.480Z,-5.79
2022-11-28T03:09:04.295Z,-5.79
2022-11-28T03:11:18.957Z,-5.80
2022-11-28T03:13:39.081Z,-5.88
2022-11-28T03:15:56.678Z,-5.86
2022-11-28T03:18:03.280Z,-5.76
2022-11-28T03:20:14.650Z,-5.76
2022-11-28T03:22:40.962Z,-5.79
2022-11-28T03:24:57.175Z,-5.78
2022-11-28T03:27:18.906Z,-5.76
2022-11-28T03:29:31.321Z,-5.82
2022-11-28T03:31:36.674Z,-5.82
2022-11-28T03:33:45.027Z,-6.07
2022-11-28T03:35:59.033Z,-6.00
2022-11-28T03:38:13.810Z,-6.02
2022-11-28T03:40:22.878Z,-5.90
2022-11-28T03:42:28.741Z,-6.03
2022-11-28T03:44:56.550Z,-6.08
2022-11-28T03:47:02.326Z,-6.06
2022-11-28T03:49:09.588Z,-6.00
2022-11-28T03:51:43.907Z,-5.94
2022-11-28T03:54:28.992Z,-5.92
2022-11-28T03:56:33.880Z,-6.08
2022-11-28T03:59:02.120Z,-6.37
2022-11-28T04:01:25.082Z,-6.15
2022-11-28T04:03:36.099Z,-6.10
2022-11-28T04:05:47.155Z,-6.11
2022-11-28T04:08:10.832Z,-6.01
2022-11-28T04:10:21.891Z,-5.98
2022-11-28T04:12:57.134Z,-5.93
2022-11-28T04:15:12.647Z,-5.90
2022-11-28T04:17:32.702Z,-5.86
2022-11-28T04:19:43.322Z,-5.94
2022-11-28T04:22:00.766Z,-5.95
2022-11-28T04:24:07.739Z,-5.99
2022-11-28T04:26:22.433Z,-5.96
2022-11-28T04:28:30.281Z,-6.00
2022-11-28T04:30:33.327Z,-6.01
2022-11-28T04:32:40.567Z,-5.92
2022-11-28T04:34:45.846Z,-5.98
2022-11-28T04:36:50.096Z,-5.96
2022-11-28T04:38:57.556Z,-5.91
2022-11-28T04:41:15.019Z,-5.96
2022-11-28T04:43:24.716Z,-5.98
2022-11-28T04:45:35.626Z,-5.96
2022-11-28T04:47:38.122Z,-5.97
2022-11-28T04:49:40.505Z,-6.01
2022-11-28T04:51:50.195Z,-6.00
2022-11-28T04:54:02.597Z,-5.96
2022-11-28T04:56:13.791Z,-5.97
2022-11-28T04:58:35.750Z,-5.93
2022-11-28T05:00:39.010Z,-5.99
2022-11-28T05:02:43.618Z,-6.08
2022-11-28T05:04:46.328Z,-6.18
2022-11-28T05:06:48.559Z,-6.33
2022-11-28T05:08:50.860Z,-6.07
2022-11-28T05:10:53.008Z,-6.51
2022-11-28T05:12:55.087Z,-6.10
2022-11-28T05:14:57.175Z,-6.41
2022-11-28T05:16:59.285Z,-6.37
2022-11-28T05:19:01.445Z,-6.15
2022-11-28T05:21:06.824Z,-6.24
2022-11-28T05:23:08.992Z,-5.96
2022-11-28T05:25:11.062Z,-6.00
2022-11-28T05:27:13.107Z,-5.91
2022-11-28T05:29:15.206Z,-5.83
2022-11-28T05:31:20.356Z,-5.88
2022-11-28T05:33:22.480Z,-5.87
2022-11-28T05:35:25.516Z,-5.83
2022-11-28T05:37:27.605Z,-5.80
2022-11-28T05:39:29.824Z,-5.95
2022-11-28T05:41:35.363Z,-6.04
2022-11-28T05:43:37.462Z,-5.82
2022-11-28T05:45:43.171Z,-5.86
2022-11-28T05:47:45.409Z,-5.78
2022-11-28T05:49:47.867Z,-5.86
2022-11-28T05:51:50.145Z,-5.77
2022-11-28T05:53:52.435Z,-5.86
2022-11-28T05:55:54.367Z,-5.92
2022-11-28T05:57:57.231Z,-6.06
2022-11-28T05:59:59.417Z,-6.04
2022-11-28T06:02:01.603Z,-6.04
2022-11-28T06:04:03.917Z,-6.24
2022-11-28T06:06:09.891Z,-6.15
2022-11-28T06:08:12.880Z,-6.26
2022-11-28T06:10:15.460Z,-6.16
2022-11-28T06:12:17.566Z,-6.13
2022-11-28T06:14:20.001Z,-6.03
2022-11-28T06:16:23.325Z,-6.03
2022-11-28T06:18:25.518Z,-5.99
2022-11-28T06:20:27.715Z,-5.96
2022-11-28T06:22:29.978Z,-6.00
2022-11-28T06:24:32.206Z,-5.98
2022-11-28T06:26:34.394Z,-5.92
2022-11-28T06:28:37.207Z,-5.85
2022-11-28T06:30:39.366Z,-5.87
2022-11-28T06:32:41.490Z,-5.79
2022-11-28T06:34:43.646Z,-5.80
2022-11-28T06:36:46.025Z,-5.71
2022-11-28T06:38:48.845Z,-5.68
2022-11-28T06:40:51.085Z,-5.62
2022-11-28T06:42:53.348Z,-5.58
2022-11-28T06:44:55.485Z,-5.53
2022-11-28T06:46:57.670Z,-5.61
2022-11-28T06:49:00.162Z,-5.59
2022-11-28T06:51:07.007Z,-5.52
2022-11-28T06:53:10.335Z,-5.52
2022-11-28T06:55:15.895Z,-5.58
2022-11-28T06:57:18.059Z,-5.45
2022-11-28T06:59:20.601Z,-5.55
2022-11-28T07:01:24.503Z,-5.52
2022-11-28T07:03:26.627Z,-5.50
2022-11-28T07:05:29.025Z,-5.69
2022-11-28T07:07:31.042Z,-5.63
2022-11-28T07:09:33.229Z,-5.62
2022-11-28T07:11:35.551Z,-5.63
2022-11-28T07:13:37.909Z,-5.61
2022-11-28T07:15:48.786Z,-5.65
2022-11-28T07:17:51.021Z,-5.61
2022-11-28T07:19:55.133Z,-5.60
2022-11-28T07:21:57.592Z,-5.55
2022-11-28T07:24:00.342Z,-5.55
2022-11-28T07:26:04.055Z,-5.52
2022-11-28T07:28:06.244Z,-5.49
2022-11-28T07:30:09.724Z,-5.37
2022-11-28T07:32:11.926Z,-5.50
2022-11-28T07:34:14.665Z,-5.34
2022-11-28T07:36:19.754Z,-5.34
2022-11-28T07:38:21.820Z,-5.30
2022-11-28T07:40:24.081Z,-5.33
2022-11-28T07:42:26.292Z,-5.29
2022-11-28T07:44:38.457Z,-5.29
2022-11-28T07:46:40.699Z,-5.21
2022-11-28T07:48:44.134Z,-5.19
2022-11-28T07:50:46.831Z,-5.35
2022-11-28T07:52:51.426Z,-5.30
2022-11-28T07:54:55.435Z,-5.34
2022-11-28T07:57:12.490Z,-5.32
2022-11-28T07:59:15.318Z,-5.19
2022-11-28T08:01:23.366Z,-5.13
2022-11-28T08:03:25.655Z,-5.10
2022-11-28T08:05:27.709Z,-5.04
2022-11-28T08:07:30.239Z,-5.08
2022-11-28T08:09:33.008Z,-5.18
2022-11-28T08:11:35.647Z,-5.07
2022-11-28T08:13:39.062Z,-5.06
2022-11-28T08:15:41.557Z,-5.02
2022-11-28T08:17:43.705Z,-5.15
2022-11-28T08:19:45.782Z,-5.22
2022-11-28T08:21:48.204Z,-5.11
2022-11-28T08:23:52.052Z,-5.12
2022-11-28T08:25:54.016Z,-5.21
2022-11-28T08:27:56.275Z,-5.07
2022-11-28T08:29:58.246Z,-5.01
2022-11-28T08:32:00.674Z,-5.04
2022-11-28T08:34:04.106Z,-5.07
2022-11-28T08:36:10.929Z,-5.14
2022-11-28T08:38:12.898Z,-5.07
2022-11-28T08:40:15.313Z,-5.10
2022-11-28T08:42:17.221Z,-4.97
2022-11-28T08:44:19.434Z,-5.05
2022-11-28T08:46:22.744Z,-5.04
2022-11-28T08:48:25.553Z,-4.85
2022-11-28T08:50:27.770Z,-4.83
2022-11-28T08:52:29.961Z,-4.70
2022-11-28T08:54:32.152Z,-4.92
2022-11-28T08:56:34.996Z,-5.03
2022-11-28T08:58:37.410Z,-4.94
2022-11-28T09:00:39.453Z,-5.21
2022-11-28T09:02:41.947Z,-5.23
2022-11-28T09:04:43.986Z,-5.13
2022-11-28T09:06:46.049Z,-5.08
2022-11-28T09:08:49.251Z,-5.05
2022-11-28T09:10:51.924Z,-5.00
2022-11-28T09:12:54.499Z,-5.05
2022-11-28T09:14:56.606Z,-4.96
2022-11-28T09:16:58.756Z,-4.90
2022-11-28T09:19:01.213Z,-4.86
2022-11-28T09:21:07.660Z,-4.88
2022-11-28T09:23:09.932Z,-4.93
2022-11-28T09:25:12.028Z,-4.97
2022-11-28T09:27:15.273Z,-4.92
2022-11-28T09:29:17.339Z,-4.97
2022-11-28T09:31:20.392Z,-4.99
2022-11-28T09:33:22.615Z,-4.98
2022-11-28T09:35:24.780Z,-4.96
2022-11-28T09:37:28.961Z,-4.93
2022-11-28T09:39:44.074Z,-4.93
2022-11-28T09:42:14.214Z,-5.10
2022-11-28T09:44:28.014Z,-5.04
2022-11-28T09:46:35.390Z,-5.06
2022-11-28T09:48:42.185Z,-5.04
2022-11-28T09:50:46.305Z,-5.01
2022-11-28T09:53:19.046Z,-4.92
2022-11-28T09:55:33.679Z,-4.91
2022-11-28T09:57:47.391Z,-5.05
2022-11-28T09:59:49.619Z,-5.01
2022-11-28T10:01:58.211Z,-5.06
2022-11-28T10:04:16.927Z,-5.13
2022-11-28T10:06:46.837Z,-5.20
2022-11-28T10:09:33.288Z,-5.19
2022-11-28T10:11:50.654Z,-5.10
2022-11-28T10:14:08.764Z,-5.34
2022-11-28T10:16:21.170Z,-5.36
2022-11-28T10:18:39.052Z,-5.28
2022-11-28T10:20:46.756Z,-5.20
2022-11-28T10:22:58.804Z,-5.20
2022-11-28T10:25:09.417Z,-5.34
2022-11-28T10:27:14.661Z,-5.27
2022-11-28T10:29:40.427Z,-5.19
2022-11-28T10:31:45.626Z,-5.13
2022-11-28T10:33:57.925Z,-5.05
2022-11-28T10:36:04.223Z,-4.97
2022-11-28T10:38:12.926Z,-4.97
2022-11-28T10:40:15.297Z,-4.96
2022-11-28T10:42:28.510Z,-4.96
2022-11-28T10:44:41.140Z,-4.92
2022-11-28T10:47:07.444Z,-4.97
2022-11-28T10:49:15.175Z,-5.08
2022-11-28T10:51:19.990Z,-4.97
2022-11-28T10:53:47.031Z,-4.97
2022-11-28T10:55:59.825Z,-4.99
2022-11-28T10:58:13.864Z,-4.89
2022-11-28T11:00:21.311Z,-4.82
2022-11-28T11:02:40.271Z,-5.02
2022-11-28T11:04:43.157Z,-5.24
2022-11-28T11:07:20.986Z,-5.27
2022-11-28T11:09:25.356Z,-5.43
2022-11-28T11:11:33.615Z,-5.57
2022-11-28T11:14:04.770Z,-5.53
2022-11-28T11:16:10.085Z,-5.40
2022-11-28T11:18:27.545Z,-5.24
2022-11-28T11:20:42.556Z,-5.15
2022-11-28T11:22:56.172Z,-5.12
2022-11-28T11:25:15.659Z,-5.12
2022-11-28T11:27:23.129Z,-5.09
2022-11-28T11:29:37.407Z,-5.04
2022-11-28T11:31:44.784Z,-5.10
2022-11-28T11:33:48.944Z,-5.18
2022-11-28T11:35:51.101Z,-5.33
2022-11-28T11:37:53.285Z,-5.33
2022-11-28T11:39:55.483Z,-5.40
2022-11-28T11:42:00.506Z,-5.26
2022-11-28T11:44:14.569Z,-5.34
2022-11-28T11:46:17.320Z,-5.42
2022-11-28T11:48:35.680Z,-5.53
2022-11-28T11:50:39.236Z,-5.39
2022-11-28T11:52:41.852Z,-5.55
2022-11-28T11:54:47.213Z,-5.47
2022-11-28T11:57:00.676Z,-5.51
2022-11-28T11:59:29.792Z,-5.57
2022-11-28T12:01:33.755Z,-5.61
2022-11-28T12:03:58.644Z,-5.62
2022-11-28T12:06:15.424Z,-5.60
2022-11-28T12:08:36.046Z,-5.55
2022-11-28T12:10:46.607Z,-5.59
2022-11-28T12:12:48.712Z,-5.57
2022-11-28T12:14:52.761Z,-5.57
2022-11-28T12:17:32.941Z,-5.56
2022-11-28T12:20:20.582Z,-5.56
2022-11-28T12:23:00.155Z,-5.62
2022-11-28T12:25:15.642Z,-5.62
2022-11-28T12:27:33.352Z,-5.73
2022-11-28T12:29:58.368Z,-5.82
2022-11-28T12:32:06.405Z,-5.80
2022-11-28T12:34:27.368Z,-5.82
2022-11-28T12:36:36.729Z,-5.77
2022-11-28T12:39:01.016Z,-5.80
2022-11-28T12:41:29.091Z,-5.75
2022-11-28T12:44:11.532Z,-5.87
2022-11-28T12:46:35.287Z,-5.95
2022-11-28T12:48:53.587Z,-5.98
2022-11-28T12:51:26.137Z,-6.15
2022-11-28T12:53:59.414Z,-6.13
2022-11-28T12:56:27.803Z,-6.15
2022-11-28T12:59:01.856Z,-6.22
2022-11-28T13:01:41.305Z,-6.30
2022-11-28T13:04:01.914Z,-6.39
2022-11-28T13:06:21.756Z,-6.41
2022-11-28T13:08:48.167Z,-6.32
2022-11-28T13:10:53.904Z,-6.30
2022-11-28T13:13:07.845Z,-6.26
2022-11-28T13:15:24.054Z,-6.35
2022-11-28T13:17:56.601Z,-6.50
2022-11-28T13:20:24.293Z,-6.39
2022-11-28T13:22:41.885Z,-6.37
2022-11-28T13:24:55.802Z,-6.53
2022-11-28T13:27:05.232Z,-6.54
2022-11-28T13:29:19.750Z,-6.52
2022-11-28T13:31:42.756Z,-6.48
2022-11-28T13:33:51.865Z,-6.43
2022-11-28T13:35:54.955Z,-6.46
2022-11-28T13:40:51.667Z,-6.38
2022-11-28T13:43:18.107Z,-6.46
2022-11-28T13:45:49.467Z,-6.48
2022-11-28T13:47:52.030Z,-6.56
2022-11-28T13:50:25.131Z,-6.67
2022-11-28T13:52:29.600Z,-6.65
2022-11-28T13:54:31.644Z,-6.61
2022-11-28T13:56:33.815Z,-6.64
2022-11-28T13:58:53.479Z,-6.61
2022-11-28T14:01:14.676Z,-6.86
2022-11-28T14:03:20.922Z,-6.84
2022-11-28T14:05:36.219Z,-6.79
2022-11-28T14:07:38.528Z,-6.82
2022-11-28T14:09:52.260Z,-6.72
2022-11-28T14:12:23.581Z,-6.70
2022-11-28T14:14:31.449Z,-6.65
2022-11-28T14:16:38.579Z,-6.59
2022-11-28T14:19:15.641Z,-6.56
2022-11-28T14:21:31.881Z,-6.64
2022-11-28T14:23:43.317Z,-6.64
2022-11-28T14:25:49.609Z,-6.65
2022-11-28T14:27:59.594Z,-6.61
2022-11-28T14:30:02.508Z,-6.71
2022-11-28T14:32:29.011Z,-6.60
2022-11-28T14:34:36.737Z,-6.54
2022-11-28T14:36:43.916Z,-6.52
2022-11-28T14:38:46.922Z,-6.47
2022-11-28T14:40:55.127Z,-6.49
2022-11-28T14:43:21.703Z,-6.45
2022-11-28T14:45:33.060Z,-6.50
2022-11-28T14:47:43.040Z,-6.50
2022-11-28T14:49:45.329Z,-6.53
2022-11-28T14:51:47.546Z,-6.45
2022-11-28T14:53:52.182Z,-6.38
2022-11-28T14:56:15.961Z,-6.40
2022-11-28T14:58:19.670Z,-6.47
2022-11-28T15:00:30.531Z,-6.51
2022-11-28T15:02:44.010Z,-6.64
2022-11-28T15:05:17.580Z,-6.71
2022-11-28T15:07:41.386Z,-6.68
2022-11-28T15:09:49.495Z,-6.65
2022-11-28T15:12:08.631Z,-6.71
2022-11-28T15:14:24.676Z,-6.76
2022-11-28T15:16:30.569Z,-6.79
2022-11-28T15:18:33.565Z,-6.75
2022-11-28T15:20:42.716Z,-6.73
2022-11-28T15:22:47.025Z,-6.74
2022-11-28T15:24:52.398Z,-6.70
2022-11-28T15:27:08.448Z,-6.71
2022-11-28T15:29:25.393Z,-6.67
2022-11-28T15:31:30.931Z,-6.73
2022-11-28T15:33:34.071Z,-6.71
2022-11-28T15:35:37.931Z,-6.64
2022-11-28T15:37:45.889Z,-6.71
2022-11-28T15:39:52.044Z,-6.76
2022-11-28T15:41:57.109Z,-6.75
2022-11-28T15:44:02.278Z,-6.76
2022-11-28T15:46:06.053Z,-6.83
2022-11-28T15:48:37.663Z,-6.97
2022-11-28T15:50:50.949Z,-6.93
2022-11-28T15:52:58.784Z,-6.95
2022-11-28T15:55:01.572Z,-7.10
2022-11-28T15:57:06.652Z,-7.02
2022-11-28T15:59:09.786Z,-7.02
2022-11-28T16:01:22.974Z,-7.01
2022-11-28T16:03:31.742Z,-6.97
2022-11-28T16:05:34.309Z,-6.99
2022-11-28T16:07:50.488Z,-6.91
2022-11-28T16:10:00.364Z,-6.87
2022-11-28T16:12:06.279Z,-6.86
2022-11-28T16:14:11.328Z,-6.90
2022-11-28T16:16:24.789Z,-6.88
2022-11-28T16:18:30.472Z,-6.83
2022-11-28T16:20:37.863Z,-6.81
2022-11-28T16:22:43.035Z,-6.74
2022-11-28T16:24:56.394Z,-6.71
2022-11-28T16:27:04.549Z,-6.84
2022-11-28T16:29:09.531Z,-6.82
2022-11-28T16:31:24.259Z,-6.84
2022-11-28T16:33:41.342Z,-6.79
2022-11-28T16:35:44.685Z,-6.83
2022-11-28T16:37:47.100Z,-6.90
2022-11-28T16:39:59.281Z,-6.83
2022-11-28T16:42:20.393Z,-6.78
2022-11-28T16:44:25.318Z,-6.76
2022-11-28T16:46:42.066Z,-6.63
2022-11-28T16:48:57.834Z,-6.67
2022-11-28T16:51:15.659Z,-6.69
2022-11-28T16:53:48.081Z,-6.75
2022-11-28T16:55:50.806Z,-6.90
2022-11-28T16:57:57.111Z,-6.84
2022-11-28T16:59:59.512Z,-6.84
2022-11-28T17:02:01.725Z,-6.76
2022-11-28T17:04:04.849Z,-6.69
2022-11-28T17:06:15.766Z,-6.67
2022-11-28T17:08:17.788Z,-6.63
2022-11-28T17:10:19.929Z,-6.74
2022-11-28T17:12:29.230Z,-6.71
2022-11-28T17:14:31.511Z,-6.92
2022-11-28T17:16:35.980Z,-6.74
2022-11-28T17:18:38.218Z,-6.82
2022-11-28T17:20:40.570Z,-6.74
2022-11-28T17:22:46.602Z,-6.72
2022-11-28T17:24:50.178Z,-6.71
2022-11-28T17:26:54.515Z,-6.67
2022-11-28T17:29:00.529Z,-6.60
2022-11-28T17:31:03.339Z,-6.60
2022-11-28T17:33:05.536Z,-6.65
2022-11-28T17:35:42.248Z,-6.66
2022-11-28T17:37:44.688Z,-6.69
2022-11-28T17:40:05.407Z,-6.66
2022-11-28T17:42:07.490Z,-6.67
2022-11-28T17:44:24.415Z,-6.62
2022-11-28T17:46:26.474Z,-6.62
2022-11-28T17:48:28.553Z,-6.53
2022-11-28T17:50:30.956Z,-6.55
2022-11-28T17:52:33.126Z,-6.49
2022-11-28T17:54:35.891Z,-6.48
2022-11-28T17:56:38.590Z,-6.47
2022-11-28T17:58:41.033Z,-6.50
2022-11-28T18:00:45.960Z,-6.53
2022-11-28T18:02:48.666Z,-6.52
2022-11-28T18:04:50.836Z,-6.55
2022-11-28T18:06:53.527Z,-6.61
2022-11-28T18:08:55.848Z,-6.61
2022-11-28T18:11:09.877Z,-6.63
2022-11-28T18:13:16.453Z,-6.63
2022-11-28T18:15:18.671Z,-6.61
2022-11-28T18:17:22.237Z,-6.54
2022-11-28T18:19:24.458Z,-6.48
2022-11-28T18:21:26.972Z,-6.52
2022-11-28T18:23:29.263Z,-6.49
2022-11-28T18:25:32.047Z,-6.52
2022-11-28T18:27:38.312Z,-6.60
2022-11-28T18:29:42.173Z,-6.61
2022-11-28T18:31:47.946Z,-6.66
2022-11-28T18:34:00.250Z,-6.62
2022-11-28T18:36:19.308Z,-6.55
2022-11-28T18:38:21.715Z,-6.48
2022-11-28T18:40:24.285Z,-6.53
2022-11-28T18:42:32.060Z,-6.52
2022-11-28T18:44:34.437Z,-6.57
2022-11-28T18:46:37.358Z,-6.59
2022-11-28T18:48:42.568Z,-6.54
2022-11-28T18:50:45.471Z,-6.57
2022-11-28T18:52:47.901Z,-6.51
2022-11-28T18:54:50.636Z,-6.47
2022-11-28T18:56:55.509Z,-6.57
2022-11-28T18:58:59.198Z,-6.59
2022-11-28T19:01:17.871Z,-6.54
2022-11-28T19:03:23.623Z,-6.68
2022-11-28T19:05:25.964Z,-6.62
2022-11-28T19:07:28.255Z,-6.57
2022-11-28T19:09:30.918Z,-6.57
2022-11-28T19:11:34.324Z,-6.56
2022-11-28T19:13:37.648Z,-6.53
2022-11-28T19:15:41.482Z,-6.45
2022-11-28T19:17:48.538Z,-6.47
2022-11-28T19:19:51.854Z,-6.55
2022-11-28T19:21:54.244Z,-6.44
2022-11-28T19:23:57.810Z,-6.49
2022-11-28T19:26:04.002Z,-6.51
2022-11-28T19:28:06.446Z,-6.58
2022-11-28T19:30:11.981Z,-6.58
2022-11-28T19:32:14.366Z,-6.59
2022-11-28T19:34:18.436Z,-6.65
2022-11-28T19:36:20.710Z,-6.69
2022-11-28T19:38:23.317Z,-6.71
2022-11-28T19:40:26.662Z,-6.74
2022-11-28T19:42:28.787Z,-6.71
2022-11-28T19:44:31.576Z,-6.78
2022-11-28T19:46:35.878Z,-6.71
2022-11-28T19:48:45.578Z,-6.69
2022-11-28T19:50:50.918Z,-6.66
2022-11-28T19:52:54.405Z,-6.62
2022-11-28T19:54:56.762Z,-6.60
2022-11-28T19:56:59.335Z,-6.63
2022-11-28T19:59:02.952Z,-6.58
2022-11-28T20:01:07.217Z,-6.57
2022-11-28T20:03:11.341Z,-6.53
2022-11-28T20:05:13.885Z,-6.65
2022-11-28T20:07:16.193Z,-6.60
2022-11-28T20:09:18.249Z,-6.58
2022-11-28T20:11:24.513Z,-6.51
2022-11-28T20:13:26.709Z,-6.55
2022-11-28T20:15:28.848Z,-6.63
2022-11-28T20:17:30.826Z,-6.56
2022-11-28T20:19:33.426Z,-6.59
2022-11-28T20:21:35.485Z,-6.59
2022-11-28T20:23:42.508Z,-6.59
2022-11-28T20:25:44.717Z,-6.56
2022-11-28T20:27:46.987Z,-6.54
2022-11-28T20:29:49.146Z,-6.51
2022-11-28T20:31:52.299Z,-6.51
2022-11-28T20:33:55.133Z,-6.57
2022-11-28T20:36:14.175Z,-6.62
2022-11-28T20:38:16.419Z,-6.56
2022-11-28T20:40:18.622Z,-6.55
2022-11-28T20:42:20.831Z,-6.58
2022-11-28T20:44:25.746Z,-6.57
2022-11-28T20:46:30.742Z,-6.59
2022-11-28T20:48:32.930Z,-6.56
2022-11-28T20:50:35.010Z,-6.53
2022-11-28T20:52:37.046Z,-6.53
2022-11-28T20:54:39.205Z,-6.56
2022-11-28T20:57:19.025Z,-6.60
2022-11-28T20:59:07.297Z,-6.58
2022-11-28T21:01:18.578Z,-6.57
2022-11-28T21:03:20.808Z,-6.56
2022-11-28T21:05:22.884Z,-6.48
2022-11-28T21:07:32.716Z,-6.46
2022-11-28T21:09:34.791Z,-6.49
2022-11-28T21:11:56.420Z,-6.52
2022-11-28T21:13:59.458Z,-6.50
2022-11-28T21:16:10.704Z,-6.62
2022-11-28T21:18:16.269Z,-6.52
2022-11-28T21:20:18.410Z,-6.53
2022-11-28T21:22:20.472Z,-6.45
2022-11-28T21:24:22.620Z,-6.40
2022-11-28T21:26:30.107Z,-6.34
2022-11-28T21:28:32.618Z,-6.29
2022-11-28T21:30:43.612Z,-6.30
2022-11-28T21:32:46.778Z,-6.37
2022-11-28T21:34:48.834Z,-6.34
2022-11-28T21:36:51.088Z,-6.41
2022-11-28T21:38:54.953Z,-6.31
2022-11-28T21:40:57.169Z,-6.41
2022-11-28T21:42:59.379Z,-6.37
2022-11-28T21:45:01.958Z,-6.38
2022-11-28T21:47:05.748Z,-6.41
2022-11-28T21:49:07.727Z,-6.39
2022-11-28T21:51:24.880Z,-6.45
2022-11-28T21:53:28.603Z,-6.48
2022-11-28T21:55:30.627Z,-6.43
2022-11-28T21:57:32.889Z,-6.41
2022-11-28T21:59:35.120Z,-6.41
2022-11-28T22:01:37.636Z,-6.41
2022-11-28T22:03:41.716Z,-6.38
2022-11-28T22:05:43.714Z,-6.33
2022-11-28T22:07:46.139Z,-6.38
2022-11-28T22:09:48.409Z,-6.42
2022-11-28T22:11:50.580Z,-6.39
2022-11-28T22:13:53.046Z,-6.38
2022-11-28T22:15:55.419Z,-6.52
2022-11-28T22:17:58.281Z,-6.51
2022-11-28T22:20:00.457Z,-6.43
2022-11-28T22:22:03.204Z,-6.43
2022-11-28T22:24:06.920Z,-6.35
2022-11-28T22:26:10.331Z,-6.30
2022-11-28T22:28:14.860Z,-6.38
2022-11-28T22:30:17.441Z,-6.44
2022-11-28T22:32:19.699Z,-6.29
2022-11-28T22:34:22.707Z,-6.26
2022-11-28T22:36:25.357Z,-6.25
2022-11-28T22:38:28.239Z,-6.34
2022-11-28T22:40:30.936Z,-6.38
2022-11-28T22:42:33.452Z,-6.34
2022-11-28T22:44:35.535Z,-6.40
2022-11-28T22:46:37.859Z,-6.57
2022-11-28T22:48:40.459Z,-6.42
2022-11-28T22:50:43.113Z,-6.55
2022-11-28T22:52:45.484Z,-6.46
2022-11-28T22:54:49.846Z,-6.58
2022-11-28T22:56:55.329Z,-6.52
2022-11-28T22:58:57.956Z,-6.43
2022-11-28T23:01:00.419Z,-6.33
2022-11-28T23:03:03.005Z,-6.30
2022-11-28T23:05:06.101Z,-6.38
2022-11-28T23:07:08.426Z,-6.30
2022-11-28T23:09:13.829Z,-6.43
2022-11-28T23:11:22.037Z,-6.42
2022-11-28T23:13:24.089Z,-6.50
2022-11-28T23:15:26.249Z,-6.37
2022-11-28T23:17:28.532Z,-6.39
2022-11-28T23:19:31.374Z,-6.42
2022-11-28T23:21:37.325Z,-6.33
2022-11-28T23:23:40.213Z,-6.39
2022-11-28T23:25:42.343Z,-6.38
2022-11-28T23:27:44.437Z,-6.38
2022-11-28T23:29:46.786Z,-6.39
2022-11-28T23:31:49.283Z,-6.34
2022-11-28T23:33:52.492Z,-6.32
2022-11-28T23:35:54.662Z,-6.25
2022-11-28T23:37:56.780Z,-6.23
2022-11-28T23:39:58.838Z,-6.27
2022-11-28T23:42:01.024Z,-6.30
2022-11-28T23:44:03.348Z,-6.26
2022-11-28T23:46:07.251Z,-6.42
2022-11-28T23:48:09.823Z,-6.29
2022-11-28T23:50:11.868Z,-6.22
2022-11-28T23:52:13.951Z,-6.33
2022-11-28T23:54:16.104Z,-6.21
2022-11-28T23:56:29.486Z,-6.32
2022-11-28T23:58:31.935Z,-6.28
